sensor_id;sensor_type;location;lat;lon;timestamp;P1;durP1;ratioP1;P2;durP2;ratioP2
12990;SDS011;6560;57.692;11.958;2023-08-20T00:00:29;6.85;;;6.30;;
12990;SDS011;6560;57.692;11.958;2023-08-20T00:03:03;6.72;;;6.13;;
12990;SDS011;6560;57.692;11.958;2023-08-20T00:05:37;7.53;;;6.65;;
12990;SDS011;6560;57.692;11.958;2023-08-20T00:08:04;7.85;;;6.68;;
12990;SDS011;6560;57.692;11.958;2023-08-20T00:10:32;9.65;;;6.20;;
12990;SDS011;6560;57.692;11.958;2023-08-20T00:12:58;8.70;;;7.70;;
12990;SDS011;6560;57.692;11.958;2023-08-20T00:15:24;7.60;;;6.90;;
12990;SDS011;6560;57.692;11.958;2023-08-20T00:17:53;8.60;;;7.63;;
12990;SDS011;6560;57.692;11.958;2023-08-20T00:20:23;7.63;;;6.95;;
12990;SDS011;6560;57.692;11.958;2023-08-20T00:22:49;7.88;;;7.28;;
12990;SDS011;6560;57.692;11.958;2023-08-20T00:25:16;8.60;;;7.05;;
12990;SDS011;6560;57.692;11.958;2023-08-20T00:27:45;10.70;;;7.65;;
12990;SDS011;6560;57.692;11.958;2023-08-20T00:30:13;8.60;;;7.40;;
12990;SDS011;6560;57.692;11.958;2023-08-20T00:32:39;7.95;;;7.25;;
12990;SDS011;6560;57.692;11.958;2023-08-20T00:35:05;10.20;;;7.25;;
12990;SDS011;6560;57.692;11.958;2023-08-20T00:37:35;8.35;;;7.55;;
12990;SDS011;6560;57.692;11.958;2023-08-20T00:40:02;8.48;;;7.70;;
12990;SDS011;6560;57.692;11.958;2023-08-20T00:42:31;8.95;;;8.05;;
12990;SDS011;6560;57.692;11.958;2023-08-20T00:44:57;9.85;;;8.25;;
12990;SDS011;6560;57.692;11.958;2023-08-20T00:47:23;9.93;;;8.00;;
12990;SDS011;6560;57.692;11.958;2023-08-20T00:49:48;9.65;;;8.13;;
12990;SDS011;6560;57.692;11.958;2023-08-20T00:52:17;10.93;;;7.97;;
12990;SDS011;6560;57.692;11.958;2023-08-20T00:54:45;9.95;;;7.88;;
12990;SDS011;6560;57.692;11.958;2023-08-20T00:57:14;9.02;;;8.23;;
12990;SDS011;6560;57.692;11.958;2023-08-20T00:59:49;10.88;;;8.73;;
12990;SDS011;6560;57.692;11.958;2023-08-20T01:02:16;12.20;;;8.13;;
12990;SDS011;6560;57.692;11.958;2023-08-20T01:04:44;10.50;;;8.20;;
12990;SDS011;6560;57.692;11.958;2023-08-20T01:10:08;10.23;;;8.98;;
12990;SDS011;6560;57.692;11.958;2023-08-20T01:12:41;10.05;;;8.98;;
12990;SDS011;6560;57.692;11.958;2023-08-20T01:15:08;12.30;;;8.65;;
12990;SDS011;6560;57.692;11.958;2023-08-20T01:17:39;12.95;;;8.73;;
12990;SDS011;6560;57.692;11.958;2023-08-20T01:20:09;10.00;;;8.75;;
12990;SDS011;6560;57.692;11.958;2023-08-20T01:28:32;10.57;;;8.63;;
12990;SDS011;6560;57.692;11.958;2023-08-20T01:30:58;10.57;;;9.55;;
12990;SDS011;6560;57.692;11.958;2023-08-20T01:33:46;11.27;;;9.40;;
12990;SDS011;6560;57.692;11.958;2023-08-20T01:36:12;10.88;;;9.00;;
12990;SDS011;6560;57.692;11.958;2023-08-20T01:38:39;10.90;;;9.63;;
12990;SDS011;6560;57.692;11.958;2023-08-20T01:41:04;9.68;;;8.68;;
12990;SDS011;6560;57.692;11.958;2023-08-20T01:43:30;15.20;;;9.40;;
12990;SDS011;6560;57.692;11.958;2023-08-20T01:45:55;10.57;;;9.20;;
12990;SDS011;6560;57.692;11.958;2023-08-20T01:48:22;9.57;;;8.57;;
12990;SDS011;6560;57.692;11.958;2023-08-20T01:50:47;10.95;;;9.10;;
12990;SDS011;6560;57.692;11.958;2023-08-20T01:53:14;10.10;;;9.18;;
12990;SDS011;6560;57.692;11.958;2023-08-20T01:55:39;10.15;;;8.98;;
12990;SDS011;6560;57.692;11.958;2023-08-20T01:58:05;10.95;;;8.85;;
12990;SDS011;6560;57.692;11.958;2023-08-20T02:00:32;11.23;;;8.70;;
12990;SDS011;6560;57.692;11.958;2023-08-20T02:02:58;9.80;;;8.63;;
12990;SDS011;6560;57.692;11.958;2023-08-20T02:05:24;10.13;;;8.48;;
12990;SDS011;6560;57.692;11.958;2023-08-20T02:07:50;8.95;;;7.68;;
12990;SDS011;6560;57.692;11.958;2023-08-20T02:10:15;12.43;;;9.10;;
12990;SDS011;6560;57.692;11.958;2023-08-20T02:12:42;8.38;;;7.60;;
12990;SDS011;6560;57.692;11.958;2023-08-20T02:15:08;9.05;;;8.20;;
12990;SDS011;6560;57.692;11.958;2023-08-20T02:17:36;8.05;;;7.35;;
12990;SDS011;6560;57.692;11.958;2023-08-20T02:20:02;7.75;;;7.05;;
12990;SDS011;6560;57.692;11.958;2023-08-20T02:22:29;6.97;;;6.28;;
12990;SDS011;6560;57.692;11.958;2023-08-20T02:24:56;7.30;;;6.50;;
12990;SDS011;6560;57.692;11.958;2023-08-20T02:27:23;7.22;;;6.35;;
12990;SDS011;6560;57.692;11.958;2023-08-20T02:29:48;7.30;;;6.57;;
12990;SDS011;6560;57.692;11.958;2023-08-20T02:32:14;6.82;;;6.13;;
12990;SDS011;6560;57.692;11.958;2023-08-20T02:34:40;8.82;;;7.05;;
12990;SDS011;6560;57.692;11.958;2023-08-20T02:37:06;6.65;;;5.95;;
12990;SDS011;6560;57.692;11.958;2023-08-20T02:39:31;7.30;;;6.60;;
12990;SDS011;6560;57.692;11.958;2023-08-20T02:41:57;8.23;;;6.82;;
12990;SDS011;6560;57.692;11.958;2023-08-20T02:44:23;7.15;;;6.45;;
12990;SDS011;6560;57.692;11.958;2023-08-20T02:46:48;7.07;;;6.38;;
12990;SDS011;6560;57.692;11.958;2023-08-20T02:49:14;7.40;;;6.70;;
12990;SDS011;6560;57.692;11.958;2023-08-20T02:51:39;6.80;;;6.20;;
12990;SDS011;6560;57.692;11.958;2023-08-20T02:54:06;7.15;;;6.55;;
12990;SDS011;6560;57.692;11.958;2023-08-20T02:56:32;6.95;;;6.22;;
12990;SDS011;6560;57.692;11.958;2023-08-20T02:58:57;7.30;;;6.57;;
12990;SDS011;6560;57.692;11.958;2023-08-20T03:01:23;7.88;;;6.22;;
12990;SDS011;6560;57.692;11.958;2023-08-20T03:03:50;6.60;;;5.80;;
12990;SDS011;6560;57.692;11.958;2023-08-20T03:06:16;6.78;;;5.60;;
12990;SDS011;6560;57.692;11.958;2023-08-20T03:08:42;6.60;;;5.95;;
12990;SDS011;6560;57.692;11.958;2023-08-20T03:11:07;8.23;;;5.13;;
12990;SDS011;6560;57.692;11.958;2023-08-20T03:13:33;8.25;;;5.63;;
12990;SDS011;6560;57.692;11.958;2023-08-20T03:15:58;6.53;;;5.88;;
12990;SDS011;6560;57.692;11.958;2023-08-20T03:18:24;6.32;;;5.72;;
12990;SDS011;6560;57.692;11.958;2023-08-20T03:20:49;5.65;;;5.15;;
12990;SDS011;6560;57.692;11.958;2023-08-20T03:23:15;6.93;;;5.70;;
12990;SDS011;6560;57.692;11.958;2023-08-20T03:25:41;6.40;;;5.78;;
12990;SDS011;6560;57.692;11.958;2023-08-20T03:28:08;6.60;;;5.85;;
12990;SDS011;6560;57.692;11.958;2023-08-20T03:30:37;6.05;;;5.45;;
12990;SDS011;6560;57.692;11.958;2023-08-20T03:33:03;5.90;;;5.40;;
12990;SDS011;6560;57.692;11.958;2023-08-20T03:35:29;6.88;;;6.05;;
12990;SDS011;6560;57.692;11.958;2023-08-20T03:37:55;6.03;;;5.43;;
12990;SDS011;6560;57.692;11.958;2023-08-20T03:40:21;5.82;;;5.22;;
12990;SDS011;6560;57.692;11.958;2023-08-20T03:42:47;7.07;;;5.07;;
12990;SDS011;6560;57.692;11.958;2023-08-20T03:45:14;5.70;;;5.20;;
12990;SDS011;6560;57.692;11.958;2023-08-20T03:47:39;7.32;;;6.38;;
12990;SDS011;6560;57.692;11.958;2023-08-20T03:50:07;5.55;;;5.05;;
12990;SDS011;6560;57.692;11.958;2023-08-20T03:52:33;6.05;;;5.47;;
12990;SDS011;6560;57.692;11.958;2023-08-20T03:54:58;5.88;;;5.38;;
12990;SDS011;6560;57.692;11.958;2023-08-20T03:57:25;5.95;;;5.45;;
12990;SDS011;6560;57.692;11.958;2023-08-20T03:59:51;7.35;;;5.40;;
12990;SDS011;6560;57.692;11.958;2023-08-20T04:02:18;6.32;;;5.00;;
12990;SDS011;6560;57.692;11.958;2023-08-20T04:04:43;6.80;;;5.80;;
12990;SDS011;6560;57.692;11.958;2023-08-20T04:07:08;5.90;;;5.40;;
12990;SDS011;6560;57.692;11.958;2023-08-20T04:09:34;6.20;;;5.60;;
12990;SDS011;6560;57.692;11.958;2023-08-20T04:12:01;6.38;;;5.32;;
12990;SDS011;6560;57.692;11.958;2023-08-20T04:14:26;6.75;;;6.15;;
12990;SDS011;6560;57.692;11.958;2023-08-20T04:16:54;5.88;;;5.18;;
12990;SDS011;6560;57.692;11.958;2023-08-20T04:19:19;6.03;;;5.53;;
12990;SDS011;6560;57.692;11.958;2023-08-20T04:21:45;5.78;;;5.07;;
12990;SDS011;6560;57.692;11.958;2023-08-20T04:24:11;6.57;;;5.57;;
12990;SDS011;6560;57.692;11.958;2023-08-20T04:26:36;5.55;;;5.05;;
12990;SDS011;6560;57.692;11.958;2023-08-20T04:29:03;6.78;;;5.78;;
12990;SDS011;6560;57.692;11.958;2023-08-20T04:31:28;5.10;;;4.70;;
12990;SDS011;6560;57.692;11.958;2023-08-20T04:33:53;4.93;;;4.43;;
12990;SDS011;6560;57.692;11.958;2023-08-20T04:36:19;5.55;;;5.03;;
12990;SDS011;6560;57.692;11.958;2023-08-20T04:38:45;5.15;;;4.75;;
12990;SDS011;6560;57.692;11.958;2023-08-20T04:41:11;4.80;;;4.40;;
12990;SDS011;6560;57.692;11.958;2023-08-20T04:43:36;5.07;;;4.57;;
12990;SDS011;6560;57.692;11.958;2023-08-20T04:46:02;6.35;;;5.32;;
12990;SDS011;6560;57.692;11.958;2023-08-20T04:48:27;4.68;;;4.28;;
12990;SDS011;6560;57.692;11.958;2023-08-20T04:50:52;5.63;;;5.07;;
12990;SDS011;6560;57.692;11.958;2023-08-20T04:53:18;4.90;;;4.50;;
12990;SDS011;6560;57.692;11.958;2023-08-20T04:55:43;6.45;;;4.18;;
12990;SDS011;6560;57.692;11.958;2023-08-20T04:58:09;4.60;;;3.90;;
12990;SDS011;6560;57.692;11.958;2023-08-20T05:00:34;4.82;;;4.43;;
12990;SDS011;6560;57.692;11.958;2023-08-20T05:03:00;4.57;;;4.10;;
12990;SDS011;6560;57.692;11.958;2023-08-20T05:05:26;5.63;;;3.90;;
12990;SDS011;6560;57.692;11.958;2023-08-20T05:07:54;4.68;;;4.20;;
12990;SDS011;6560;57.692;11.958;2023-08-20T05:10:19;4.82;;;4.43;;
12990;SDS011;6560;57.692;11.958;2023-08-20T05:12:45;4.72;;;4.32;;
12990;SDS011;6560;57.692;11.958;2023-08-20T05:15:10;5.18;;;4.18;;
12990;SDS011;6560;57.692;11.958;2023-08-20T05:17:36;5.30;;;4.80;;
12990;SDS011;6560;57.692;11.958;2023-08-20T05:20:01;4.78;;;4.18;;
12990;SDS011;6560;57.692;11.958;2023-08-20T05:22:28;6.47;;;4.63;;
12990;SDS011;6560;57.692;11.958;2023-08-20T05:24:54;6.15;;;4.45;;
12990;SDS011;6560;57.692;11.958;2023-08-20T05:27:19;5.50;;;5.00;;
12990;SDS011;6560;57.692;11.958;2023-08-20T05:29:45;5.45;;;4.75;;
12990;SDS011;6560;57.692;11.958;2023-08-20T05:32:10;5.85;;;5.28;;
12990;SDS011;6560;57.692;11.958;2023-08-20T05:34:36;7.88;;;5.32;;
12990;SDS011;6560;57.692;11.958;2023-08-20T05:37:03;5.88;;;5.38;;
12990;SDS011;6560;57.692;11.958;2023-08-20T05:39:36;6.28;;;5.10;;
12990;SDS011;6560;57.692;11.958;2023-08-20T05:42:03;6.07;;;5.47;;
12990;SDS011;6560;57.692;11.958;2023-08-20T05:44:28;6.05;;;5.05;;
12990;SDS011;6560;57.692;11.958;2023-08-20T05:46:54;6.70;;;5.32;;
12990;SDS011;6560;57.692;11.958;2023-08-20T05:49:19;6.47;;;5.78;;
12990;SDS011;6560;57.692;11.958;2023-08-20T05:51:45;7.03;;;5.57;;
12990;SDS011;6560;57.692;11.958;2023-08-20T05:54:10;7.53;;;5.85;;
12990;SDS011;6560;57.692;11.958;2023-08-20T05:56:36;9.10;;;6.30;;
12990;SDS011;6560;57.692;11.958;2023-08-20T05:59:06;6.85;;;5.80;;
12990;SDS011;6560;57.692;11.958;2023-08-20T06:01:32;7.25;;;6.22;;
12990;SDS011;6560;57.692;11.958;2023-08-20T06:03:57;7.75;;;6.07;;
12990;SDS011;6560;57.692;11.958;2023-08-20T06:06:23;7.28;;;5.55;;
12990;SDS011;6560;57.692;11.958;2023-08-20T06:08:48;8.63;;;6.35;;
12990;SDS011;6560;57.692;11.958;2023-08-20T06:11:13;7.78;;;5.97;;
12990;SDS011;6560;57.692;11.958;2023-08-20T06:13:40;8.32;;;5.90;;
12990;SDS011;6560;57.692;11.958;2023-08-20T06:16:06;11.25;;;6.90;;
12990;SDS011;6560;57.692;11.958;2023-08-20T06:18:33;8.77;;;6.60;;
12990;SDS011;6560;57.692;11.958;2023-08-20T06:20:59;9.07;;;6.35;;
12990;SDS011;6560;57.692;11.958;2023-08-20T06:23:24;7.82;;;5.80;;
12990;SDS011;6560;57.692;11.958;2023-08-20T06:25:50;8.32;;;6.13;;
12990;SDS011;6560;57.692;11.958;2023-08-20T06:28:17;9.00;;;6.25;;
12990;SDS011;6560;57.692;11.958;2023-08-20T06:30:46;9.32;;;6.05;;
12990;SDS011;6560;57.692;11.958;2023-08-20T06:33:12;9.93;;;6.43;;
12990;SDS011;6560;57.692;11.958;2023-08-20T06:35:38;9.68;;;6.90;;
12990;SDS011;6560;57.692;11.958;2023-08-20T06:38:04;9.45;;;6.80;;
12990;SDS011;6560;57.692;11.958;2023-08-20T06:40:30;8.10;;;5.93;;
12990;SDS011;6560;57.692;11.958;2023-08-20T06:42:56;11.95;;;6.43;;
12990;SDS011;6560;57.692;11.958;2023-08-20T06:45:22;11.25;;;7.22;;
12990;SDS011;6560;57.692;11.958;2023-08-20T06:47:47;11.13;;;6.30;;
12990;SDS011;6560;57.692;11.958;2023-08-20T06:50:13;8.95;;;6.35;;
12990;SDS011;6560;57.692;11.958;2023-08-20T06:52:38;7.07;;;5.88;;
12990;SDS011;6560;57.692;11.958;2023-08-20T06:55:06;9.65;;;6.07;;
12990;SDS011;6560;57.692;11.958;2023-08-20T06:57:32;11.90;;;7.13;;
12990;SDS011;6560;57.692;11.958;2023-08-20T06:59:59;8.75;;;7.38;;
12990;SDS011;6560;57.692;11.958;2023-08-20T07:02:25;8.48;;;6.03;;
12990;SDS011;6560;57.692;11.958;2023-08-20T07:04:50;9.98;;;7.38;;
12990;SDS011;6560;57.692;11.958;2023-08-20T07:07:17;10.15;;;6.95;;
12990;SDS011;6560;57.692;11.958;2023-08-20T07:09:42;11.30;;;7.70;;
12990;SDS011;6560;57.692;11.958;2023-08-20T07:12:08;9.93;;;6.82;;
12990;SDS011;6560;57.692;11.958;2023-08-20T07:14:33;12.50;;;6.78;;
12990;SDS011;6560;57.692;11.958;2023-08-20T07:16:59;14.50;;;7.90;;
12990;SDS011;6560;57.692;11.958;2023-08-20T07:19:28;12.38;;;7.72;;
12990;SDS011;6560;57.692;11.958;2023-08-20T07:21:54;14.95;;;8.25;;
12990;SDS011;6560;57.692;11.958;2023-08-20T07:24:20;12.18;;;7.75;;
12990;SDS011;6560;57.692;11.958;2023-08-20T07:26:50;11.05;;;7.38;;
12990;SDS011;6560;57.692;11.958;2023-08-20T07:29:16;10.80;;;7.05;;
12990;SDS011;6560;57.692;11.958;2023-08-20T07:31:42;12.95;;;7.88;;
12990;SDS011;6560;57.692;11.958;2023-08-20T07:34:07;11.48;;;7.70;;
12990;SDS011;6560;57.692;11.958;2023-08-20T07:36:34;13.35;;;9.20;;
12990;SDS011;6560;57.692;11.958;2023-08-20T07:38:59;13.82;;;8.52;;
12990;SDS011;6560;57.692;11.958;2023-08-20T07:41:25;11.85;;;8.13;;
12990;SDS011;6560;57.692;11.958;2023-08-20T07:43:51;15.75;;;8.93;;
12990;SDS011;6560;57.692;11.958;2023-08-20T07:46:18;15.43;;;8.55;;
12990;SDS011;6560;57.692;11.958;2023-08-20T07:48:44;22.60;;;9.30;;
12990;SDS011;6560;57.692;11.958;2023-08-20T07:51:11;17.42;;;9.35;;
12990;SDS011;6560;57.692;11.958;2023-08-20T07:53:36;19.15;;;9.75;;
12990;SDS011;6560;57.692;11.958;2023-08-20T07:56:03;20.38;;;9.80;;
12990;SDS011;6560;57.692;11.958;2023-08-20T07:58:29;27.08;;;10.40;;
12990;SDS011;6560;57.692;11.958;2023-08-20T08:00:55;20.33;;;10.07;;
12990;SDS011;6560;57.692;11.958;2023-08-20T08:03:21;17.85;;;9.68;;
12990;SDS011;6560;57.692;11.958;2023-08-20T08:05:47;17.13;;;9.65;;
12990;SDS011;6560;57.692;11.958;2023-08-20T08:08:16;15.90;;;9.20;;
12990;SDS011;6560;57.692;11.958;2023-08-20T08:10:43;18.65;;;10.52;;
12990;SDS011;6560;57.692;11.958;2023-08-20T08:13:12;19.70;;;11.27;;
12990;SDS011;6560;57.692;11.958;2023-08-20T08:15:38;23.08;;;12.45;;
12990;SDS011;6560;57.692;11.958;2023-08-20T08:18:04;24.50;;;12.60;;
12990;SDS011;6560;57.692;11.958;2023-08-20T08:20:30;34.00;;;15.02;;
12990;SDS011;6560;57.692;11.958;2023-08-20T08:22:57;28.23;;;13.65;;
12990;SDS011;6560;57.692;11.958;2023-08-20T08:25:23;31.27;;;14.43;;
12990;SDS011;6560;57.692;11.958;2023-08-20T08:27:53;33.47;;;15.93;;
12990;SDS011;6560;57.692;11.958;2023-08-20T08:30:19;38.25;;;15.63;;
12990;SDS011;6560;57.692;11.958;2023-08-20T08:32:46;36.15;;;16.85;;
12990;SDS011;6560;57.692;11.958;2023-08-20T08:35:11;33.88;;;14.88;;
12990;SDS011;6560;57.692;11.958;2023-08-20T08:37:37;34.25;;;16.77;;
12990;SDS011;6560;57.692;11.958;2023-08-20T08:40:03;27.33;;;15.60;;
12990;SDS011;6560;57.692;11.958;2023-08-20T08:42:32;27.73;;;13.55;;
12990;SDS011;6560;57.692;11.958;2023-08-20T08:45:02;32.17;;;13.60;;
12990;SDS011;6560;57.692;11.958;2023-08-20T08:47:29;24.20;;;11.38;;
12990;SDS011;6560;57.692;11.958;2023-08-20T08:49:55;24.70;;;12.32;;
12990;SDS011;6560;57.692;11.958;2023-08-20T08:52:25;21.90;;;10.82;;
12990;SDS011;6560;57.692;11.958;2023-08-20T08:54:54;19.98;;;10.88;;
12990;SDS011;6560;57.692;11.958;2023-08-20T08:57:20;21.40;;;10.60;;
12990;SDS011;6560;57.692;11.958;2023-08-20T08:59:46;19.15;;;10.80;;
12990;SDS011;6560;57.692;11.958;2023-08-20T09:02:12;19.83;;;9.82;;
12990;SDS011;6560;57.692;11.958;2023-08-20T09:04:39;17.80;;;9.30;;
12990;SDS011;6560;57.692;11.958;2023-08-20T09:07:11;17.88;;;9.57;;
12990;SDS011;6560;57.692;11.958;2023-08-20T09:09:38;21.15;;;9.82;;
12990;SDS011;6560;57.692;11.958;2023-08-20T09:12:20;18.85;;;9.65;;
12990;SDS011;6560;57.692;11.958;2023-08-20T09:14:46;17.88;;;9.20;;
12990;SDS011;6560;57.692;11.958;2023-08-20T09:17:16;18.52;;;8.77;;
12990;SDS011;6560;57.692;11.958;2023-08-20T09:19:42;12.88;;;7.97;;
12990;SDS011;6560;57.692;11.958;2023-08-20T09:22:10;11.85;;;7.88;;
12990;SDS011;6560;57.692;11.958;2023-08-20T09:27:13;18.77;;;8.65;;
12990;SDS011;6560;57.692;11.958;2023-08-20T09:29:53;11.00;;;7.43;;
12990;SDS011;6560;57.692;11.958;2023-08-20T09:32:23;12.15;;;7.63;;
12990;SDS011;6560;57.692;11.958;2023-08-20T09:34:50;11.13;;;6.55;;
12990;SDS011;6560;57.692;11.958;2023-08-20T09:37:18;12.93;;;7.00;;
12990;SDS011;6560;57.692;11.958;2023-08-20T09:39:45;16.60;;;7.30;;
12990;SDS011;6560;57.692;11.958;2023-08-20T09:42:11;11.57;;;6.68;;
12990;SDS011;6560;57.692;11.958;2023-08-20T09:44:41;14.38;;;7.68;;
12990;SDS011;6560;57.692;11.958;2023-08-20T09:49:44;19.48;;;7.68;;
12990;SDS011;6560;57.692;11.958;2023-08-20T09:52:31;19.77;;;7.88;;
12990;SDS011;6560;57.692;11.958;2023-08-20T09:55:06;12.25;;;7.22;;
12990;SDS011;6560;57.692;11.958;2023-08-20T09:57:41;20.23;;;7.53;;
12990;SDS011;6560;57.692;11.958;2023-08-20T10:00:10;15.45;;;6.65;;
12990;SDS011;6560;57.692;11.958;2023-08-20T10:02:38;15.95;;;7.22;;
12990;SDS011;6560;57.692;11.958;2023-08-20T10:05:08;14.85;;;7.07;;
12990;SDS011;6560;57.692;11.958;2023-08-20T10:07:36;16.35;;;7.07;;
12990;SDS011;6560;57.692;11.958;2023-08-20T10:10:06;15.80;;;7.13;;
12990;SDS011;6560;57.692;11.958;2023-08-20T10:12:35;9.68;;;6.57;;
12990;SDS011;6560;57.692;11.958;2023-08-20T10:15:04;13.32;;;6.53;;
12990;SDS011;6560;57.692;11.958;2023-08-20T10:17:32;14.73;;;7.65;;
12990;SDS011;6560;57.692;11.958;2023-08-20T10:20:00;16.63;;;7.65;;
12990;SDS011;6560;57.692;11.958;2023-08-20T10:22:41;11.27;;;7.28;;
12990;SDS011;6560;57.692;11.958;2023-08-20T10:25:10;13.60;;;7.10;;
12990;SDS011;6560;57.692;11.958;2023-08-20T10:27:47;16.58;;;8.20;;
12990;SDS011;6560;57.692;11.958;2023-08-20T10:30:17;11.55;;;6.80;;
12990;SDS011;6560;57.692;11.958;2023-08-20T10:32:52;16.40;;;8.23;;
12990;SDS011;6560;57.692;11.958;2023-08-20T10:35:26;12.70;;;7.03;;
12990;SDS011;6560;57.692;11.958;2023-08-20T10:38:12;15.02;;;7.05;;
12990;SDS011;6560;57.692;11.958;2023-08-20T10:40:57;12.88;;;6.35;;
12990;SDS011;6560;57.692;11.958;2023-08-20T10:43:30;13.40;;;7.32;;
12990;SDS011;6560;57.692;11.958;2023-08-20T10:46:16;13.68;;;6.40;;
12990;SDS011;6560;57.692;11.958;2023-08-20T10:48:42;10.27;;;5.97;;
12990;SDS011;6560;57.692;11.958;2023-08-20T10:51:26;18.48;;;7.15;;
12990;SDS011;6560;57.692;11.958;2023-08-20T10:56:41;12.73;;;6.30;;
12990;SDS011;6560;57.692;11.958;2023-08-20T10:59:15;11.85;;;6.38;;
12990;SDS011;6560;57.692;11.958;2023-08-20T11:01:59;11.80;;;5.65;;
12990;SDS011;6560;57.692;11.958;2023-08-20T11:04:28;10.88;;;5.10;;
12990;SDS011;6560;57.692;11.958;2023-08-20T11:06:59;9.73;;;5.35;;
12990;SDS011;6560;57.692;11.958;2023-08-20T11:09:27;11.40;;;4.68;;
12990;SDS011;6560;57.692;11.958;2023-08-20T11:11:56;6.05;;;4.40;;
12990;SDS011;6560;57.692;11.958;2023-08-20T11:14:23;9.82;;;4.85;;
12990;SDS011;6560;57.692;11.958;2023-08-20T11:16:49;10.43;;;5.05;;
12990;SDS011;6560;57.692;11.958;2023-08-20T11:19:19;8.23;;;3.80;;
12990;SDS011;6560;57.692;11.958;2023-08-20T11:21:47;8.02;;;3.63;;
12990;SDS011;6560;57.692;11.958;2023-08-20T11:24:14;8.02;;;3.63;;
12990;SDS011;6560;57.692;11.958;2023-08-20T11:26:41;7.15;;;3.33;;
12990;SDS011;6560;57.692;11.958;2023-08-20T11:29:08;10.77;;;4.07;;
12990;SDS011;6560;57.692;11.958;2023-08-20T11:31:35;8.57;;;4.20;;
12990;SDS011;6560;57.692;11.958;2023-08-20T11:34:02;11.18;;;4.22;;
12990;SDS011;6560;57.692;11.958;2023-08-20T11:36:28;7.15;;;3.72;;
12990;SDS011;6560;57.692;11.958;2023-08-20T11:38:54;4.75;;;2.90;;
12990;SDS011;6560;57.692;11.958;2023-08-20T11:41:21;7.47;;;3.33;;
12990;SDS011;6560;57.692;11.958;2023-08-20T11:43:48;10.52;;;4.13;;
12990;SDS011;6560;57.692;11.958;2023-08-20T11:46:14;8.35;;;4.03;;
12990;SDS011;6560;57.692;11.958;2023-08-20T11:49:00;6.82;;;3.83;;
12990;SDS011;6560;57.692;11.958;2023-08-20T11:51:40;7.25;;;3.40;;
12990;SDS011;6560;57.692;11.958;2023-08-20T11:54:15;11.60;;;4.38;;
12990;SDS011;6560;57.692;11.958;2023-08-20T11:56:46;8.10;;;3.45;;
12990;SDS011;6560;57.692;11.958;2023-08-20T11:59:18;6.05;;;3.35;;
12990;SDS011;6560;57.692;11.958;2023-08-20T12:01:52;4.63;;;2.85;;
12990;SDS011;6560;57.692;11.958;2023-08-20T12:04:27;6.90;;;3.40;;
12990;SDS011;6560;57.692;11.958;2023-08-20T12:07:12;11.27;;;3.75;;
12990;SDS011;6560;57.692;11.958;2023-08-20T12:09:39;8.65;;;3.40;;
12990;SDS011;6560;57.692;11.958;2023-08-20T12:12:05;5.60;;;3.03;;
12990;SDS011;6560;57.692;11.958;2023-08-20T12:14:32;8.27;;;3.15;;
12990;SDS011;6560;57.692;11.958;2023-08-20T12:16:58;7.25;;;3.13;;
12990;SDS011;6560;57.692;11.958;2023-08-20T12:19:23;6.22;;;3.10;;
12990;SDS011;6560;57.692;11.958;2023-08-20T12:21:49;11.02;;;3.67;;
12990;SDS011;6560;57.692;11.958;2023-08-20T12:24:15;8.27;;;2.88;;
12990;SDS011;6560;57.692;11.958;2023-08-20T12:26:41;8.80;;;3.33;;
12990;SDS011;6560;57.692;11.958;2023-08-20T12:29:07;7.18;;;2.60;;
12990;SDS011;6560;57.692;11.958;2023-08-20T12:31:33;9.25;;;3.17;;
12990;SDS011;6560;57.692;11.958;2023-08-20T12:33:59;7.28;;;2.72;;
12990;SDS011;6560;57.692;11.958;2023-08-20T12:36:25;6.85;;;2.80;;
12990;SDS011;6560;57.692;11.958;2023-08-20T12:38:50;7.53;;;2.55;;
12990;SDS011;6560;57.692;11.958;2023-08-20T12:41:16;6.68;;;2.88;;
12990;SDS011;6560;57.692;11.958;2023-08-20T12:43:41;5.95;;;2.17;;
12990;SDS011;6560;57.692;11.958;2023-08-20T12:46:07;3.22;;;1.50;;
12990;SDS011;6560;57.692;11.958;2023-08-20T12:48:33;5.43;;;1.85;;
12990;SDS011;6560;57.692;11.958;2023-08-20T12:50:58;5.60;;;2.08;;
12990;SDS011;6560;57.692;11.958;2023-08-20T12:53:24;9.18;;;3.15;;
12990;SDS011;6560;57.692;11.958;2023-08-20T12:55:49;7.88;;;2.88;;
12990;SDS011;6560;57.692;11.958;2023-08-20T12:58:15;4.43;;;1.88;;
12990;SDS011;6560;57.692;11.958;2023-08-20T13:00:43;5.85;;;2.55;;
12990;SDS011;6560;57.692;11.958;2023-08-20T13:03:08;7.68;;;2.38;;
12990;SDS011;6560;57.692;11.958;2023-08-20T13:05:34;3.17;;;1.42;;
12990;SDS011;6560;57.692;11.958;2023-08-20T13:08:00;6.53;;;2.33;;
12990;SDS011;6560;57.692;11.958;2023-08-20T13:10:27;6.07;;;2.38;;
12990;SDS011;6560;57.692;11.958;2023-08-20T13:12:55;6.28;;;2.08;;
12990;SDS011;6560;57.692;11.958;2023-08-20T13:15:27;4.35;;;1.90;;
12990;SDS011;6560;57.692;11.958;2023-08-20T13:17:53;5.10;;;2.15;;
12990;SDS011;6560;57.692;11.958;2023-08-20T13:20:20;4.68;;;1.83;;
12990;SDS011;6560;57.692;11.958;2023-08-20T13:22:50;4.82;;;1.80;;
12990;SDS011;6560;57.692;11.958;2023-08-20T13:25:17;10.05;;;2.45;;
12990;SDS011;6560;57.692;11.958;2023-08-20T13:27:43;5.47;;;2.03;;
12990;SDS011;6560;57.692;11.958;2023-08-20T13:30:10;7.72;;;3.00;;
12990;SDS011;6560;57.692;11.958;2023-08-20T13:32:36;7.18;;;2.65;;
12990;SDS011;6560;57.692;11.958;2023-08-20T13:35:02;3.67;;;2.38;;
12990;SDS011;6560;57.692;11.958;2023-08-20T13:37:30;5.93;;;3.13;;
12990;SDS011;6560;57.692;11.958;2023-08-20T13:39:58;5.38;;;2.58;;
12990;SDS011;6560;57.692;11.958;2023-08-20T13:42:25;5.38;;;2.38;;
12990;SDS011;6560;57.692;11.958;2023-08-20T13:44:52;5.25;;;2.40;;
12990;SDS011;6560;57.692;11.958;2023-08-20T13:47:18;8.50;;;2.60;;
12990;SDS011;6560;57.692;11.958;2023-08-20T13:49:43;4.60;;;2.92;;
12990;SDS011;6560;57.692;11.958;2023-08-20T13:52:09;7.20;;;2.83;;
12990;SDS011;6560;57.692;11.958;2023-08-20T13:54:35;7.53;;;2.75;;
12990;SDS011;6560;57.692;11.958;2023-08-20T13:57:01;7.90;;;3.08;;
12990;SDS011;6560;57.692;11.958;2023-08-20T13:59:28;6.28;;;2.85;;
12990;SDS011;6560;57.692;11.958;2023-08-20T14:01:54;6.90;;;2.65;;
12990;SDS011;6560;57.692;11.958;2023-08-20T14:04:21;9.00;;;3.47;;
12990;SDS011;6560;57.692;11.958;2023-08-20T14:06:47;6.18;;;3.25;;
12990;SDS011;6560;57.692;11.958;2023-08-20T14:09:13;8.07;;;2.90;;
12990;SDS011;6560;57.692;11.958;2023-08-20T14:11:45;9.73;;;3.35;;
12990;SDS011;6560;57.692;11.958;2023-08-20T14:14:11;9.05;;;3.03;;
12990;SDS011;6560;57.692;11.958;2023-08-20T14:16:38;8.43;;;3.30;;
12990;SDS011;6560;57.692;11.958;2023-08-20T14:19:05;7.47;;;3.67;;
12990;SDS011;6560;57.692;11.958;2023-08-20T14:21:33;8.45;;;2.65;;
12990;SDS011;6560;57.692;11.958;2023-08-20T14:23:59;8.30;;;3.10;;
12990;SDS011;6560;57.692;11.958;2023-08-20T14:26:24;7.45;;;2.53;;
12990;SDS011;6560;57.692;11.958;2023-08-20T14:28:50;7.95;;;2.83;;
12990;SDS011;6560;57.692;11.958;2023-08-20T14:31:15;5.00;;;2.97;;
12990;SDS011;6560;57.692;11.958;2023-08-20T14:33:41;7.70;;;3.38;;
12990;SDS011;6560;57.692;11.958;2023-08-20T14:36:06;5.72;;;2.83;;
12990;SDS011;6560;57.692;11.958;2023-08-20T14:38:32;5.72;;;3.38;;
12990;SDS011;6560;57.692;11.958;2023-08-20T14:41:01;7.80;;;2.97;;
12990;SDS011;6560;57.692;11.958;2023-08-20T14:43:27;6.13;;;3.30;;
12990;SDS011;6560;57.692;11.958;2023-08-20T14:45:53;11.27;;;4.00;;
12990;SDS011;6560;57.692;11.958;2023-08-20T14:48:21;4.90;;;3.65;;
12990;SDS011;6560;57.692;11.958;2023-08-20T14:50:47;14.73;;;4.15;;
12990;SDS011;6560;57.692;11.958;2023-08-20T14:53:14;10.75;;;4.30;;
12990;SDS011;6560;57.692;11.958;2023-08-20T14:55:40;10.02;;;4.07;;
12990;SDS011;6560;57.692;11.958;2023-08-20T14:58:05;8.32;;;4.35;;
12990;SDS011;6560;57.692;11.958;2023-08-20T15:00:31;7.90;;;3.70;;